sensor_id;sensor_type;location;lat;lon;timestamp;pressure;altitude;pressure_sealevel;temperature;humidity
11830;BME280;5972;42.134;24.718;2024-02-15T00:00:51;99889.22;;;8.27;67.19
11830;BME280;5972;42.134;24.718;2024-02-15T00:03:19;100033.59;;;9.40;66.56
11830;BME280;5972;42.134;24.718;2024-02-15T00:05:47;100045.16;;;9.49;66.80
11830;BME280;5972;42.134;24.718;2024-02-15T00:08:15;99988.31;;;8.91;67.50
11830;BME280;5972;42.134;24.718;2024-02-15T00:10:42;99883.38;;;8.34;66.76
11830;BME280;5972;42.134;24.718;2024-02-15T00:13:12;100051.69;;;9.48;67.01
11830;BME280;5972;42.134;24.718;2024-02-15T00:15:41;100056.16;;;9.44;67.07
11830;BME280;5972;42.134;24.718;2024-02-15T00:18:08;99986.88;;;8.93;66.41
11830;BME280;5972;42.134;24.718;2024-02-15T00:20:35;99983.81;;;9.03;66.56
11830;BME280;5972;42.134;24.718;2024-02-15T00:23:02;100032.50;;;9.33;65.59
11830;BME280;5972;42.134;24.718;2024-02-15T00:25:33;99875.13;;;8.30;65.22
11830;BME280;5972;42.134;24.718;2024-02-15T00:28:00;99985.25;;;9.09;65.59
11830;BME280;5972;42.134;24.718;2024-02-15T00:30:27;99986.25;;;8.88;66.11
11830;BME280;5972;42.134;24.718;2024-02-15T00:32:55;99887.31;;;8.28;66.20
11830;BME280;5972;42.134;24.718;2024-02-15T00:35:22;99976.25;;;8.88;65.82
11830;BME280;5972;42.134;24.718;2024-02-15T00:37:49;99952.16;;;8.66;65.92
11830;BME280;5972;42.134;24.718;2024-02-15T00:40:16;100046.16;;;9.36;66.12
11830;BME280;5972;42.134;24.718;2024-02-15T00:42:45;99978.03;;;8.84;66.51
11830;BME280;5972;42.134;24.718;2024-02-15T00:45:12;100004.97;;;8.93;66.90
11830;BME280;5972;42.134;24.718;2024-02-15T00:47:39;100049.19;;;9.26;66.83
11830;BME280;5972;42.134;24.718;2024-02-15T00:50:08;100025.38;;;9.19;67.10
11830;BME280;5972;42.134;24.718;2024-02-15T00:52:35;99973.06;;;8.95;66.79
11830;BME280;5972;42.134;24.718;2024-02-15T00:55:02;99963.00;;;8.57;66.95
11830;BME280;5972;42.134;24.718;2024-02-15T00:57:30;99991.19;;;8.77;66.11
11830;BME280;5972;42.134;24.718;2024-02-15T00:59:58;99873.53;;;8.04;65.93
11830;BME280;5972;42.134;24.718;2024-02-15T01:02:28;100006.06;;;8.92;67.02
11830;BME280;5972;42.134;24.718;2024-02-15T01:04:58;100007.84;;;8.88;66.85
11830;BME280;5972;42.134;24.718;2024-02-15T01:07:25;100045.59;;;9.13;67.40
11830;BME280;5972;42.134;24.718;2024-02-15T01:09:53;99880.34;;;7.92;67.36
11830;BME280;5972;42.134;24.718;2024-02-15T01:12:23;99992.31;;;8.85;67.55
11830;BME280;5972;42.134;24.718;2024-02-15T01:14:52;100028.31;;;8.89;68.37
11830;BME280;5972;42.134;24.718;2024-02-15T01:17:20;100062.72;;;9.09;67.84
11830;BME280;5972;42.134;24.718;2024-02-15T01:19:47;100040.81;;;9.10;68.06
11830;BME280;5972;42.134;24.718;2024-02-15T01:22:18;99969.31;;;8.61;69.06
11830;BME280;5972;42.134;24.718;2024-02-15T01:24:45;99916.84;;;8.24;69.47
11830;BME280;5972;42.134;24.718;2024-02-15T01:27:15;99968.22;;;8.54;69.97
11830;BME280;5972;42.134;24.718;2024-02-15T01:29:44;99842.66;;;7.84;69.90
11830;BME280;5972;42.134;24.718;2024-02-15T01:32:17;99923.16;;;8.11;69.71
11830;BME280;5972;42.134;24.718;2024-02-15T01:34:46;99963.47;;;8.51;69.50
11830;BME280;5972;42.134;24.718;2024-02-15T01:37:14;99942.97;;;8.15;69.74
11830;BME280;5972;42.134;24.718;2024-02-15T01:39:41;99898.56;;;7.87;69.58
11830;BME280;5972;42.134;24.718;2024-02-15T01:42:08;99855.31;;;7.66;69.31
11830;BME280;5972;42.134;24.718;2024-02-15T01:44:35;100050.25;;;8.79;70.79
11830;BME280;5972;42.134;24.718;2024-02-15T01:47:02;100027.88;;;8.61;71.08
11830;BME280;5972;42.134;24.718;2024-02-15T01:49:30;100037.22;;;8.55;72.21
11830;BME280;5972;42.134;24.718;2024-02-15T01:52:02;100027.53;;;8.37;72.46
11830;BME280;5972;42.134;24.718;2024-02-15T01:54:34;100003.25;;;8.28;72.13
11830;BME280;5972;42.134;24.718;2024-02-15T01:57:04;100065.78;;;8.64;71.97
11830;BME280;5972;42.134;24.718;2024-02-15T01:59:33;99974.50;;;7.89;70.17
11830;BME280;5972;42.134;24.718;2024-02-15T02:02:08;100014.81;;;8.20;69.78
11830;BME280;5972;42.134;24.718;2024-02-15T02:04:37;100021.16;;;8.24;70.87
11830;BME280;5972;42.134;24.718;2024-02-15T02:07:10;100068.97;;;8.49;72.10
11830;BME280;5972;42.134;24.718;2024-02-15T02:09:37;100075.94;;;8.50;70.20
11830;BME280;5972;42.134;24.718;2024-02-15T02:12:05;100061.81;;;8.45;70.57
11830;BME280;5972;42.134;24.718;2024-02-15T02:14:33;100078.47;;;8.38;71.18
11830;BME280;5972;42.134;24.718;2024-02-15T02:17:11;100000.34;;;7.99;71.90
11830;BME280;5972;42.134;24.718;2024-02-15T02:19:39;100048.78;;;8.29;72.42
11830;BME280;5972;42.134;24.718;2024-02-15T02:22:07;99871.94;;;6.94;71.21
11830;BME280;5972;42.134;24.718;2024-02-15T02:24:44;100084.31;;;8.31;71.01
11830;BME280;5972;42.134;24.718;2024-02-15T02:27:14;100038.22;;;7.93;70.62
11830;BME280;5972;42.134;24.718;2024-02-15T02:29:44;100079.25;;;8.30;70.76
11830;BME280;5972;42.134;24.718;2024-02-15T02:32:12;100056.81;;;8.21;71.53
11830;BME280;5972;42.134;24.718;2024-02-15T02:34:39;100074.63;;;8.30;71.51
11830;BME280;5972;42.134;24.718;2024-02-15T02:37:06;99965.38;;;7.50;71.88
11830;BME280;5972;42.134;24.718;2024-02-15T02:39:34;100022.19;;;7.80;71.87
11830;BME280;5972;42.134;24.718;2024-02-15T02:42:01;100055.69;;;7.96;72.01
11830;BME280;5972;42.134;24.718;2024-02-15T02:44:29;100076.94;;;8.06;72.72
11830;BME280;5972;42.134;24.718;2024-02-15T02:46:57;100084.38;;;8.09;72.32
11830;BME280;5972;42.134;24.718;2024-02-15T02:49:26;100072.16;;;8.03;72.36
11830;BME280;5972;42.134;24.718;2024-02-15T02:51:53;100069.81;;;8.02;72.07
11830;BME280;5972;42.134;24.718;2024-02-15T02:54:20;100102.00;;;8.07;72.80
11830;BME280;5972;42.134;24.718;2024-02-15T02:56:48;99903.56;;;6.89;73.96
11830;BME280;5972;42.134;24.718;2024-02-15T02:59:15;100012.13;;;7.55;74.43
11830;BME280;5972;42.134;24.718;2024-02-15T03:01:44;100092.00;;;8.07;74.05
11830;BME280;5972;42.134;24.718;2024-02-15T03:04:11;99977.19;;;7.32;74.11
11830;BME280;5972;42.134;24.718;2024-02-15T03:06:42;100034.38;;;7.77;74.36
11830;BME280;5972;42.134;24.718;2024-02-15T03:09:09;100016.91;;;7.66;74.05
11830;BME280;5972;42.134;24.718;2024-02-15T03:11:39;100011.38;;;7.63;74.35
11830;BME280;5972;42.134;24.718;2024-02-15T03:14:06;100074.91;;;8.12;74.98
11830;BME280;5972;42.134;24.718;2024-02-15T03:16:33;99972.47;;;7.38;75.22
11830;BME280;5972;42.134;24.718;2024-02-15T03:19:02;100086.47;;;8.12;72.78
11830;BME280;5972;42.134;24.718;2024-02-15T03:21:30;100081.25;;;8.16;72.68
11830;BME280;5972;42.134;24.718;2024-02-15T03:23:57;100073.75;;;8.04;73.21
11830;BME280;5972;42.134;24.718;2024-02-15T03:26:29;100087.41;;;8.08;72.50
11830;BME280;5972;42.134;24.718;2024-02-15T03:28:59;99940.38;;;7.19;72.68
11830;BME280;5972;42.134;24.718;2024-02-15T03:31:26;99935.72;;;7.02;72.01
11830;BME280;5972;42.134;24.718;2024-02-15T03:33:55;100025.66;;;7.80;71.91
11830;BME280;5972;42.134;24.718;2024-02-15T03:36:23;100093.31;;;8.27;71.99
11830;BME280;5972;42.134;24.718;2024-02-15T03:38:50;100050.78;;;8.07;71.65
11830;BME280;5972;42.134;24.718;2024-02-15T03:41:19;99973.91;;;7.52;71.28
11830;BME280;5972;42.134;24.718;2024-02-15T03:43:46;100043.91;;;7.92;70.60
11830;BME280;5972;42.134;24.718;2024-02-15T03:46:14;100050.75;;;7.98;70.26
11830;BME280;5972;42.134;24.718;2024-02-15T03:48:42;100075.88;;;8.24;70.42
11830;BME280;5972;42.134;24.718;2024-02-15T03:51:11;100082.03;;;8.16;70.04
11830;BME280;5972;42.134;24.718;2024-02-15T03:53:43;100090.50;;;8.32;70.23
11830;BME280;5972;42.134;24.718;2024-02-15T03:56:10;100032.34;;;7.83;70.44
11830;BME280;5972;42.134;24.718;2024-02-15T03:58:38;100086.41;;;8.34;69.96
11830;BME280;5972;42.134;24.718;2024-02-15T04:01:05;100067.41;;;8.09;69.90
11830;BME280;5972;42.134;24.718;2024-02-15T04:03:35;100084.28;;;8.23;69.08
11830;BME280;5972;42.134;24.718;2024-02-15T04:06:04;100102.72;;;8.38;69.12
11830;BME280;5972;42.134;24.718;2024-02-15T04:08:31;100052.19;;;7.96;68.96
11830;BME280;5972;42.134;24.718;2024-02-15T04:10:59;99927.34;;;7.35;69.10
11830;BME280;5972;42.134;24.718;2024-02-15T04:13:26;100116.25;;;8.47;68.97
11830;BME280;5972;42.134;24.718;2024-02-15T04:15:54;99923.16;;;7.20;69.32
11830;BME280;5972;42.134;24.718;2024-02-15T04:18:22;100090.69;;;8.36;69.04
11830;BME280;5972;42.134;24.718;2024-02-15T04:20:49;100094.16;;;8.36;69.29
11830;BME280;5972;42.134;24.718;2024-02-15T04:23:16;100059.34;;;8.09;68.75
11830;BME280;5972;42.134;24.718;2024-02-15T04:25:44;100109.56;;;8.44;68.04
11830;BME280;5972;42.134;24.718;2024-02-15T04:28:17;100040.47;;;8.00;67.89
11830;BME280;5972;42.134;24.718;2024-02-15T04:30:46;100103.38;;;8.44;67.58
11830;BME280;5972;42.134;24.718;2024-02-15T04:33:14;100105.56;;;8.42;67.47
11830;BME280;5972;42.134;24.718;2024-02-15T04:35:42;100044.41;;;8.03;67.99
11830;BME280;5972;42.134;24.718;2024-02-15T04:38:09;100108.47;;;8.45;68.32
11830;BME280;5972;42.134;24.718;2024-02-15T04:40:36;100106.06;;;8.44;68.87
11830;BME280;5972;42.134;24.718;2024-02-15T04:43:05;100101.94;;;8.38;67.99
11830;BME280;5972;42.134;24.718;2024-02-15T04:45:35;100041.06;;;7.80;68.17
11830;BME280;5972;42.134;24.718;2024-02-15T04:48:03;100111.75;;;8.33;68.82
11830;BME280;5972;42.134;24.718;2024-02-15T04:50:31;100119.25;;;8.45;67.96
11830;BME280;5972;42.134;24.718;2024-02-15T04:52:59;100032.69;;;7.90;68.16
11830;BME280;5972;42.134;24.718;2024-02-15T04:55:26;100071.72;;;8.10;68.54
11830;BME280;5972;42.134;24.718;2024-02-15T04:57:56;100001.72;;;7.70;68.34
11830;BME280;5972;42.134;24.718;2024-02-15T05:00:25;100117.88;;;8.25;68.53
11830;BME280;5972;42.134;24.718;2024-02-15T05:02:53;99976.63;;;7.52;68.67
11830;BME280;5972;42.134;24.718;2024-02-15T05:05:23;100047.00;;;8.08;68.31
11830;BME280;5972;42.134;24.718;2024-02-15T05:07:52;100128.13;;;8.46;68.24
11830;BME280;5972;42.134;24.718;2024-02-15T05:10:19;100124.00;;;8.48;68.17
11830;BME280;5972;42.134;24.718;2024-02-15T05:12:46;100117.50;;;8.49;67.74
11830;BME280;5972;42.134;24.718;2024-02-15T05:15:16;100140.53;;;8.55;68.23
11830;BME280;5972;42.134;24.718;2024-02-15T05:17:50;100067.91;;;8.02;67.71
11830;BME280;5972;42.134;24.718;2024-02-15T05:20:28;100076.34;;;8.18;68.47
11830;BME280;5972;42.134;24.718;2024-02-15T05:22:57;100075.09;;;8.24;68.23
11830;BME280;5972;42.134;24.718;2024-02-15T05:25:24;100032.81;;;7.85;67.79
11830;BME280;5972;42.134;24.718;2024-02-15T05:27:53;99986.41;;;7.40;68.21
11830;BME280;5972;42.134;24.718;2024-02-15T05:30:22;100084.56;;;8.13;67.25
11830;BME280;5972;42.134;24.718;2024-02-15T05:32:49;100148.28;;;8.48;67.83
11830;BME280;5972;42.134;24.718;2024-02-15T05:35:19;99957.09;;;7.38;67.24
11830;BME280;5972;42.134;24.718;2024-02-15T05:37:46;100082.53;;;8.18;67.31
11830;BME280;5972;42.134;24.718;2024-02-15T05:40:14;100082.03;;;8.16;66.97
11830;BME280;5972;42.134;24.718;2024-02-15T05:42:42;100104.59;;;8.29;67.08
11830;BME280;5972;42.134;24.718;2024-02-15T05:45:31;99981.34;;;7.47;67.61
11830;BME280;5972;42.134;24.718;2024-02-15T05:48:00;100005.66;;;7.64;67.37
11830;BME280;5972;42.134;24.718;2024-02-15T05:50:30;100187.34;;;8.68;68.20
11830;BME280;5972;42.134;24.718;2024-02-15T05:53:00;100152.75;;;8.70;66.63
11830;BME280;5972;42.134;24.718;2024-02-15T05:55:27;100117.97;;;8.43;66.41
11830;BME280;5972;42.134;24.718;2024-02-15T05:57:55;100142.41;;;8.46;66.59
11830;BME280;5972;42.134;24.718;2024-02-15T06:00:22;100030.44;;;7.83;66.46
11830;BME280;5972;42.134;24.718;2024-02-15T06:02:49;100006.78;;;7.63;66.27
11830;BME280;5972;42.134;24.718;2024-02-15T06:05:18;100180.84;;;8.77;66.01
11830;BME280;5972;42.134;24.718;2024-02-15T06:07:47;100010.88;;;7.69;66.86
11830;BME280;5972;42.134;24.718;2024-02-15T06:10:14;100088.34;;;8.03;66.47
11830;BME280;5972;42.134;24.718;2024-02-15T06:12:41;100006.94;;;7.67;66.54
11830;BME280;5972;42.134;24.718;2024-02-15T06:15:10;99982.63;;;7.49;66.62
11830;BME280;5972;42.134;24.718;2024-02-15T06:17:41;100182.75;;;8.77;66.71
11830;BME280;5972;42.134;24.718;2024-02-15T06:20:11;100181.50;;;8.83;66.18
11830;BME280;5972;42.134;24.718;2024-02-15T06:22:52;100015.16;;;7.70;65.86
11830;BME280;5972;42.134;24.718;2024-02-15T06:25:19;100163.72;;;8.73;66.10
11830;BME280;5972;42.134;24.718;2024-02-15T06:27:49;100127.19;;;8.59;65.40
11830;BME280;5972;42.134;24.718;2024-02-15T06:30:24;100024.13;;;7.97;65.04
11830;BME280;5972;42.134;24.718;2024-02-15T06:33:08;100168.03;;;9.00;65.73
11830;BME280;5972;42.134;24.718;2024-02-15T06:35:53;100186.13;;;9.17;64.83
11830;BME280;5972;42.134;24.718;2024-02-15T06:38:39;100178.34;;;9.07;64.38
11830;BME280;5972;42.134;24.718;2024-02-15T06:41:23;100202.97;;;9.23;64.00
11830;BME280;5972;42.134;24.718;2024-02-15T06:43:56;100197.41;;;9.19;64.60
11830;BME280;5972;42.134;24.718;2024-02-15T06:46:26;100135.16;;;8.90;63.36
11830;BME280;5972;42.134;24.718;2024-02-15T06:48:55;100141.03;;;9.00;63.08
11830;BME280;5972;42.134;24.718;2024-02-15T06:51:26;99998.91;;;7.92;63.41
11830;BME280;5972;42.134;24.718;2024-02-15T06:54:01;100014.66;;;8.25;63.11
11830;BME280;5972;42.134;24.718;2024-02-15T06:56:31;100047.88;;;8.51;62.34
11830;BME280;5972;42.134;24.718;2024-02-15T06:59:19;100037.53;;;8.36;62.25
11830;BME280;5972;42.134;24.718;2024-02-15T07:01:56;100206.63;;;9.52;61.96
11830;BME280;5972;42.134;24.718;2024-02-15T07:04:31;100141.81;;;9.09;61.92
11830;BME280;5972;42.134;24.718;2024-02-15T07:08:08;100043.41;;;8.64;61.62
11830;BME280;5972;42.134;24.718;2024-02-15T07:10:12;100074.38;;;8.66;61.02
11830;BME280;5972;42.134;24.718;2024-02-15T07:12:56;100145.59;;;9.43;60.42
11830;BME280;5972;42.134;24.718;2024-02-15T07:15:47;100006.94;;;8.41;60.68
11830;BME280;5972;42.134;24.718;2024-02-15T07:18:31;100210.47;;;9.98;60.19
11830;BME280;5972;42.134;24.718;2024-02-15T07:21:16;100122.25;;;9.47;59.13
11830;BME280;5972;42.134;24.718;2024-02-15T07:23:59;100126.19;;;9.58;58.88
11830;BME280;5972;42.134;24.718;2024-02-15T07:26:54;100118.38;;;9.65;57.67
11830;BME280;5972;42.134;24.718;2024-02-15T07:29:29;100149.81;;;9.78;58.00
11830;BME280;5972;42.134;24.718;2024-02-15T07:32:10;100025.56;;;9.23;57.96
11830;BME280;5972;42.134;24.718;2024-02-15T07:35:14;100218.06;;;10.60;58.07
11830;BME280;5972;42.134;24.718;2024-02-15T07:38:06;100108.59;;;9.90;56.98
11830;BME280;5972;42.134;24.718;2024-02-15T07:43:38;100224.63;;;10.59;56.18
11830;BME280;5972;42.134;24.718;2024-02-15T07:46:33;100109.41;;;10.20;56.59
11830;BME280;5972;42.134;24.718;2024-02-15T07:49:21;100134.38;;;10.55;55.25
11830;BME280;5972;42.134;24.718;2024-02-15T07:51:53;100049.91;;;10.20;54.33
11830;BME280;5972;42.134;24.718;2024-02-15T07:54:23;100212.78;;;11.88;53.38
11830;BME280;5972;42.134;24.718;2024-02-15T07:56:58;100191.34;;;13.60;49.88
11830;BME280;5972;42.134;24.718;2024-02-15T07:59:56;100179.38;;;15.25;43.53
11830;BME280;5972;42.134;24.718;2024-02-15T08:02:44;100208.66;;;16.80;39.89
11830;BME280;5972;42.134;24.718;2024-02-15T08:05:19;100201.00;;;17.53;38.34
11830;BME280;5972;42.134;24.718;2024-02-15T08:07:56;100118.03;;;17.45;37.36
11830;BME280;5972;42.134;24.718;2024-02-15T08:10:25;100096.50;;;17.40;36.58
11830;BME280;5972;42.134;24.718;2024-02-15T08:13:02;100072.44;;;18.00;35.73
11830;BME280;5972;42.134;24.718;2024-02-15T08:15:51;100124.53;;;19.48;34.29
11830;BME280;5972;42.134;24.718;2024-02-15T08:18:53;100116.75;;;19.72;33.49
11830;BME280;5972;42.134;24.718;2024-02-15T08:21:31;100071.50;;;19.20;33.00
11830;BME280;5972;42.134;24.718;2024-02-15T08:24:12;100158.34;;;20.13;32.04
11830;BME280;5972;42.134;24.718;2024-02-15T08:26:42;100191.72;;;20.04;32.65
11830;BME280;5972;42.134;24.718;2024-02-15T08:29:25;100161.44;;;19.69;32.21
11830;BME280;5972;42.134;24.718;2024-02-15T08:31:54;100074.16;;;18.95;32.22
11830;BME280;5972;42.134;24.718;2024-02-15T08:34:21;100209.38;;;20.03;32.51
11830;BME280;5972;42.134;24.718;2024-02-15T08:36:48;100196.81;;;20.13;32.33
11830;BME280;5972;42.134;24.718;2024-02-15T08:39:15;100218.00;;;20.19;31.91
11830;BME280;5972;42.134;24.718;2024-02-15T08:41:45;100172.47;;;20.57;31.63
11830;BME280;5972;42.134;24.718;2024-02-15T08:44:12;100075.56;;;19.72;31.35
11830;BME280;5972;42.134;24.718;2024-02-15T08:46:41;100157.16;;;20.63;31.03
11830;BME280;5972;42.134;24.718;2024-02-15T08:49:13;100073.97;;;19.71;31.37
11830;BME280;5972;42.134;24.718;2024-02-15T08:51:40;100125.38;;;20.38;31.10
11830;BME280;5972;42.134;24.718;2024-02-15T08:54:07;100181.06;;;20.95;30.65
11830;BME280;5972;42.134;24.718;2024-02-15T08:56:35;100185.97;;;21.46;29.91
11830;BME280;5972;42.134;24.718;2024-02-15T08:59:10;100231.28;;;21.31;30.42
11830;BME280;5972;42.134;24.718;2024-02-15T09:01:50;100098.94;;;20.90;30.11
11830;BME280;5972;42.134;24.718;2024-02-15T09:04:18;100069.91;;;20.71;30.17
11830;BME280;5972;42.134;24.718;2024-02-15T09:06:58;100118.63;;;20.74;30.09
11830;BME280;5972;42.134;24.718;2024-02-15T09:09:35;100157.69;;;21.42;29.97
11830;BME280;5972;42.134;24.718;2024-02-15T09:12:04;100212.53;;;21.84;30.26
11830;BME280;5972;42.134;24.718;2024-02-15T09:18:45;100068.84;;;21.38;29.48
11830;BME280;5972;42.134;24.718;2024-02-15T09:24:15;100083.50;;;21.17;29.45
11830;BME280;5972;42.134;24.718;2024-02-15T09:27:10;100106.94;;;21.43;28.99
11830;BME280;5972;42.134;24.718;2024-02-15T09:29:41;100078.94;;;20.68;29.84
11830;BME280;5972;42.134;24.718;2024-02-15T09:32:12;100171.41;;;21.56;29.38
11830;BME280;5972;42.134;24.718;2024-02-15T09:34:49;100114.31;;;20.62;30.11
11830;BME280;5972;42.134;24.718;2024-02-15T09:37:28;100174.31;;;21.10;30.20
11830;BME280;5972;42.134;24.718;2024-02-15T09:40:10;100120.84;;;21.11;30.25
11830;BME280;5972;42.134;24.718;2024-02-15T09:42:37;100134.16;;;21.30;29.59
11830;BME280;5972;42.134;24.718;2024-02-15T09:45:05;100162.03;;;21.36;29.96
11830;BME280;5972;42.134;24.718;2024-02-15T09:47:37;100173.97;;;21.84;29.42
11830;BME280;5972;42.134;24.718;2024-02-15T09:50:06;100175.75;;;21.46;29.87
11830;BME280;5972;42.134;24.718;2024-02-15T09:52:36;100097.69;;;21.05;30.10
11830;BME280;5972;42.134;24.718;2024-02-15T09:55:07;100157.97;;;21.62;29.83
11830;BME280;5972;42.134;24.718;2024-02-15T09:57:42;100107.13;;;21.04;29.86
11830;BME280;5972;42.134;24.718;2024-02-15T10:00:12;100133.00;;;22.38;29.07
11830;BME280;5972;42.134;24.718;2024-02-15T10:03:02;100157.41;;;22.39;28.93
11830;BME280;5972;42.134;24.718;2024-02-15T10:05:35;100144.69;;;21.49;29.97
11830;BME280;5972;42.134;24.718;2024-02-15T10:08:08;100144.22;;;22.17;29.47
11830;BME280;5972;42.134;24.718;2024-02-15T10:10:40;100052.09;;;21.04;29.80
11830;BME280;5972;42.134;24.718;2024-02-15T10:13:22;100006.38;;;21.24;29.45
11830;BME280;5972;42.134;24.718;2024-02-15T10:15:52;100133.75;;;21.94;29.18
11830;BME280;5972;42.134;24.718;2024-02-15T10:18:20;100005.94;;;21.33;29.17
11830;BME280;5972;42.134;24.718;2024-02-15T10:20:59;100025.56;;;21.90;28.80
11830;BME280;5972;42.134;24.718;2024-02-15T10:23:27;100034.38;;;22.15;28.88
11830;BME280;5972;42.134;24.718;2024-02-15T10:25:55;100066.81;;;22.01;28.59
11830;BME280;5972;42.134;24.718;2024-02-15T10:28:25;100108.69;;;22.67;28.28
11830;BME280;5972;42.134;24.718;2024-02-15T10:30:53;100028.53;;;22.10;28.52
11830;BME280;5972;42.134;24.718;2024-02-15T10:33:26;100096.13;;;22.21;28.73
11830;BME280;5972;42.134;24.718;2024-02-15T10:36:05;100090.97;;;22.64;28.89
11830;BME280;5972;42.134;24.718;2024-02-15T10:38:32;100006.88;;;21.64;29.06
11830;BME280;5972;42.134;24.718;2024-02-15T10:41:03;100084.31;;;22.21;28.77
11830;BME280;5972;42.134;24.718;2024-02-15T10:43:33;100095.13;;;22.42;28.71
11830;BME280;5972;42.134;24.718;2024-02-15T10:46:00;100095.19;;;21.94;29.10
11830;BME280;5972;42.134;24.718;2024-02-15T10:48:28;100092.81;;;21.96;28.98
11830;BME280;5972;42.134;24.718;2024-02-15T10:50:56;99935.94;;;21.34;28.76
11830;BME280;5972;42.134;24.718;2024-02-15T10:53:27;100033.63;;;22.11;28.65
11830;BME280;5972;42.134;24.718;2024-02-15T10:56:07;100072.78;;;22.33;28.77
11830;BME280;5972;42.134;24.718;2024-02-15T10:58:47;99939.84;;;20.74;29.24
11830;BME280;5972;42.134;24.718;2024-02-15T11:01:17;99955.75;;;21.11;29.11
11830;BME280;5972;42.134;24.718;2024-02-15T11:03:51;100026.38;;;22.24;28.64
11830;BME280;5972;42.134;24.718;2024-02-15T11:06:20;99934.91;;;21.10;28.81
11830;BME280;5972;42.134;24.718;2024-02-15T11:08:48;100059.84;;;22.26;28.99
11830;BME280;5972;42.134;24.718;2024-02-15T11:11:22;100045.88;;;22.07;28.71
11830;BME280;5972;42.134;24.718;2024-02-15T11:14:25;100027.63;;;21.75;28.93
11830;BME280;5972;42.134;24.718;2024-02-15T11:16:54;100008.84;;;21.63;28.99
11830;BME280;5972;42.134;24.718;2024-02-15T11:19:43;100032.00;;;21.73;29.20
11830;BME280;5972;42.134;24.718;2024-02-15T11:22:14;100052.72;;;21.88;29.21
11830;BME280;5972;42.134;24.718;2024-02-15T11:24:49;100031.16;;;21.76;29.46
11830;BME280;5972;42.134;24.718;2024-02-15T11:27:27;100046.22;;;21.68;29.47
11830;BME280;5972;42.134;24.718;2024-02-15T11:29:57;100041.53;;;21.57;29.40
11830;BME280;5972;42.134;24.718;2024-02-15T11:32:42;100007.44;;;20.75;30.06
11830;BME280;5972;42.134;24.718;2024-02-15T11:35:15;99944.19;;;19.49;31.21
11830;BME280;5972;42.134;24.718;2024-02-15T11:38:06;100020.59;;;19.43;32.03
11830;BME280;5972;42.134;24.718;2024-02-15T11:41:08;100019.28;;;18.77;32.80
11830;BME280;5972;42.134;24.718;2024-02-15T11:43:46;99980.66;;;18.24;33.12
11830;BME280;5972;42.134;24.718;2024-02-15T11:46:17;100020.03;;;18.74;33.17
11830;BME280;5972;42.134;24.718;2024-02-15T11:48:44;100023.78;;;18.45;33.58
11830;BME280;5972;42.134;24.718;2024-02-15T11:51:25;99999.72;;;18.06;34.03
11830;BME280;5972;42.134;24.718;2024-02-15T11:53:59;99999.06;;;18.31;34.03
11830;BME280;5972;42.134;24.718;2024-02-15T11:56:26;100029.22;;;18.34;34.22
11830;BME280;5972;42.134;24.718;2024-02-15T11:59:02;100019.66;;;18.00;34.15
11830;BME280;5972;42.134;24.718;2024-02-15T12:01:33;99992.31;;;17.59;34.75
11830;BME280;5972;42.134;24.718;2024-02-15T12:04:18;100014.34;;;17.70;34.75
11830;BME280;5972;42.134;24.718;2024-02-15T12:07:03;100015.47;;;17.65;34.93
11830;BME280;5972;42.134;24.718;2024-02-15T12:09:47;99999.56;;;17.37;35.30
11830;BME280;5972;42.134;24.718;2024-02-15T12:12:31;99998.53;;;17.12;35.47
11830;BME280;5972;42.134;24.718;2024-02-15T12:15:25;100022.44;;;17.19;35.85
11830;BME280;5972;42.134;24.718;2024-02-15T12:18:17;100011.16;;;17.24;35.69
11830;BME280;5972;42.134;24.718;2024-02-15T12:21:02;100007.25;;;17.21;36.00
11830;BME280;5972;42.134;24.718;2024-02-15T12:23:29;100004.00;;;17.12;36.19
11830;BME280;5972;42.134;24.718;2024-02-15T12:25:59;100003.16;;;17.04;35.77
11830;BME280;5972;42.134;24.718;2024-02-15T12:28:27;100002.44;;;17.11;35.74
11830;BME280;5972;42.134;24.718;2024-02-15T12:30:55;99989.31;;;16.87;36.29
11830;BME280;5972;42.134;24.718;2024-02-15T12:33:24;100005.38;;;16.92;36.63
11830;BME280;5972;42.134;24.718;2024-02-15T12:36:03;99996.34;;;16.88;36.47
11830;BME280;5972;42.134;24.718;2024-02-15T12:38:34;99965.75;;;16.75;36.37
11830;BME280;5972;42.134;24.718;2024-02-15T12:41:18;99995.41;;;17.10;36.35
11830;BME280;5972;42.134;24.718;2024-02-15T12:43:45;99987.41;;;16.94;36.66
11830;BME280;5972;42.134;24.718;2024-02-15T12:46:21;99981.75;;;17.14;35.90
11830;BME280;5972;42.134;24.718;2024-02-15T12:48:49;99954.41;;;17.10;36.01
11830;BME280;5972;42.134;24.718;2024-02-15T12:51:18;99994.69;;;17.17;35.99
11830;BME280;5972;42.134;24.718;2024-02-15T12:53:46;99969.28;;;16.76;36.33
11830;BME280;5972;42.134;24.718;2024-02-15T12:56:20;99980.28;;;16.83;36.42
11830;BME280;5972;42.134;24.718;2024-02-15T12:58:49;99988.84;;;16.81;36.42
11830;BME280;5972;42.134;24.718;2024-02-15T13:01:28;99838.25;;;15.83;36.73
11830;BME280;5972;42.134;24.718;2024-02-15T13:04:03;99988.66;;;17.00;36.55
11830;BME280;5972;42.134;24.718;2024-02-15T13:06:41;99906.00;;;16.07;36.41
11830;BME280;5972;42.134;24.718;2024-02-15T13:09:22;99924.00;;;16.45;36.20
11830;BME280;5972;42.134;24.718;2024-02-15T13:11:50;99941.94;;;16.42;36.33
11830;BME280;5972;42.134;24.718;2024-02-15T13:14:19;99980.66;;;16.81;36.29
11830;BME280;5972;42.134;24.718;2024-02-15T13:16:48;99941.56;;;16.44;36.39
11830;BME280;5972;42.134;24.718;2024-02-15T13:19:17;99995.47;;;16.80;36.48
11830;BME280;5972;42.134;24.718;2024-02-15T13:21:46;99975.94;;;16.78;36.47
11830;BME280;5972;42.134;24.718;2024-02-15T13:24:18;99981.69;;;16.70;36.46
11830;BME280;5972;42.134;24.718;2024-02-15T13:26:48;99958.41;;;16.49;36.51
11830;BME280;5972;42.134;24.718;2024-02-15T13:29:15;99993.97;;;16.83;36.27
11830;BME280;5972;42.134;24.718;2024-02-15T13:31:43;99954.47;;;16.77;35.93
11830;BME280;5972;42.134;24.718;2024-02-15T13:34:13;99972.81;;;16.80;36.08